createdAt,value
2022-09-23T00:01:04.579Z,95108.75
2022-09-23T00:03:33.112Z,95111.59
2022-09-23T00:06:01.942Z,95116.66
2022-09-23T00:08:29.145Z,95102.69
2022-09-23T00:10:56.432Z,95109.78
2022-09-23T00:13:23.807Z,95104.50
2022-09-23T00:15:52.144Z,95106.94
2022-09-23T00:18:20.708Z,95104.97
2022-09-23T00:20:48.101Z,95110.56
2022-09-23T00:23:15.000Z,95110.00
2022-09-23T00:25:41.806Z,95103.72
2022-09-23T00:28:08.693Z,95107.59
2022-09-23T00:30:35.675Z,95106.44
2022-09-23T00:33:04.026Z,95107.69
2022-09-23T00:35:30.665Z,95108.38
2022-09-23T00:37:57.304Z,95102.78
2022-09-23T00:40:24.864Z,95103.47
2022-09-23T00:42:52.094Z,95098.19
2022-09-23T00:45:19.114Z,95102.19
2022-09-23T00:47:48.289Z,95092.16
2022-09-23T00:50:23.398Z,95089.53
2022-09-23T00:52:52.787Z,95096.63
2022-09-23T00:55:25.319Z,95092.16
2022-09-23T00:57:54.603Z,95092.94
2022-09-23T01:00:23.280Z,95091.13
2022-09-23T01:02:50.837Z,95088.28
2022-09-23T01:05:19.469Z,95087.81
2022-09-23T01:07:46.975Z,95083.34
2022-09-23T01:10:16.112Z,95082.81
2022-09-23T01:13:08.598Z,95073.31
2022-09-23T01:15:42.518Z,95076.25
2022-09-23T01:18:21.311Z,95075.69
2022-09-23T01:21:08.953Z,95066.38
2022-09-23T01:24:15.545Z,95063.50
2022-09-23T01:27:11.391Z,95061.00
2022-09-23T01:29:48.901Z,95062.22
2022-09-23T01:32:27.839Z,95059.59
2022-09-23T01:35:01.444Z,95059.28
2022-09-23T01:37:35.549Z,95055.94
2022-09-23T01:40:11.167Z,95048.72
2022-09-23T01:42:43.458Z,95048.38
2022-09-23T01:45:17.690Z,95058.28
2022-09-23T01:47:52.360Z,95040.72
2022-09-23T01:50:40.022Z,95045.75
2022-09-23T01:53:13.078Z,95043.34
2022-09-23T01:55:47.566Z,95042.53
2022-09-23T01:58:19.497Z,95038.22
2022-09-23T02:00:53.942Z,95036.75
2022-09-23T02:03:27.699Z,95032.66
2022-09-23T02:05:59.692Z,95036.66
2022-09-23T02:08:31.979Z,95034.16
2022-09-23T02:11:04.820Z,95036.44
2022-09-23T02:13:40.668Z,95035.22
2022-09-23T02:16:14.194Z,95035.22
2022-09-23T02:18:47.589Z,95031.19
2022-09-23T02:21:16.714Z,95032.69
2022-09-23T02:23:46.699Z,95032.69
2022-09-23T02:26:20.610Z,95031.66
2022-09-23T02:28:56.172Z,95039.31
2022-09-23T02:31:31.340Z,95035.91
2022-09-23T02:34:07.637Z,95038.06
2022-09-23T02:36:44.846Z,95036.25
2022-09-23T02:39:14.170Z,95036.25
2022-09-23T02:41:51.407Z,95026.75
2022-09-23T02:44:20.480Z,95032.00
2022-09-23T02:46:50.357Z,95036.44
2022-09-23T02:49:21.514Z,95035.66
2022-09-23T02:51:48.899Z,95036.78
2022-09-23T02:54:19.008Z,95036.31
2022-09-23T02:56:45.771Z,95038.00
2022-09-23T02:59:13.110Z,95035.84
2022-09-23T03:01:53.064Z,95038.88
2022-09-23T03:04:31.563Z,95032.84
2022-09-23T03:07:06.169Z,95031.25
2022-09-23T03:09:40.158Z,95030.22
2022-09-23T03:12:15.673Z,95029.63
2022-09-23T03:14:50.587Z,95023.25
2022-09-23T03:17:25.134Z,95028.69
2022-09-23T03:19:58.559Z,95030.78
2022-09-23T03:22:30.216Z,95024.94
2022-09-23T03:25:02.590Z,95027.13
2022-09-23T03:27:32.731Z,95021.63
2022-09-23T03:30:00.987Z,95019.81
2022-09-23T03:32:29.280Z,95019.81
2022-09-23T03:35:00.032Z,95008.16
2022-09-23T03:37:32.497Z,95015.91
2022-09-23T03:40:07.111Z,95015.75
2022-09-23T03:42:35.139Z,95016.66
2022-09-23T03:45:07.438Z,95010.25
2022-09-23T03:47:34.209Z,95013.09
2022-09-23T03:50:02.885Z,95007.28
2022-09-23T03:52:29.528Z,95017.97
2022-09-23T03:54:56.543Z,95012.59
2022-09-23T03:57:23.375Z,95014.06
2022-09-23T03:59:50.641Z,95009.03
2022-09-23T04:02:17.926Z,95011.91
2022-09-23T04:04:45.334Z,95009.88
2022-09-23T04:07:14.175Z,95012.91
2022-09-23T04:09:41.198Z,95011.91
2022-09-23T04:12:11.810Z,95016.34
2022-09-23T04:14:39.134Z,95018.97
2022-09-23T04:17:05.752Z,95015.91
2022-09-23T04:19:32.509Z,95014.06
2022-09-23T04:21:59.092Z,95008.97
2022-09-23T04:24:27.395Z,95013.19
2022-09-23T04:26:55.667Z,95004.72
2022-09-23T04:29:23.694Z,94998.13
2022-09-23T04:31:51.581Z,95002.78
2022-09-23T04:34:19.398Z,95002.22
2022-09-23T04:36:47.687Z,95005.47
2022-09-23T04:39:16.308Z,94999.88
2022-09-23T04:41:45.372Z,95000.69
2022-09-23T04:44:13.035Z,95003.75
2022-09-23T04:46:39.991Z,95004.63
2022-09-23T04:49:07.293Z,95004.63
2022-09-23T04:51:34.062Z,95007.63
2022-09-23T04:54:00.705Z,94999.50
2022-09-23T04:56:29.357Z,95005.94
2022-09-23T04:58:58.198Z,95013.59
2022-09-23T05:01:27.082Z,95010.00
2022-09-23T05:03:56.179Z,95022.31
2022-09-23T05:06:23.497Z,95013.66
2022-09-23T05:08:51.751Z,95016.06
2022-09-23T05:11:18.937Z,95020.06
2022-09-23T05:13:46.987Z,95016.84
2022-09-23T05:16:15.578Z,95012.84
2022-09-23T05:18:44.051Z,95019.34
2022-09-23T05:21:12.764Z,95014.53
2022-09-23T05:23:41.187Z,95023.84
2022-09-23T05:26:09.619Z,95017.22
2022-09-23T05:28:37.587Z,95019.50
2022-09-23T05:31:05.779Z,95028.78
2022-09-23T05:33:34.643Z,95019.13
2022-09-23T05:36:02.275Z,95018.31
2022-09-23T05:38:29.468Z,95012.63
2022-09-23T05:40:57.001Z,95016.63
2022-09-23T05:43:24.743Z,95014.84
2022-09-23T05:45:51.708Z,95022.69
2022-09-23T05:48:18.637Z,95017.66
2022-09-23T05:50:51.356Z,95021.88
2022-09-23T05:53:19.004Z,95021.09
2022-09-23T05:55:46.219Z,95021.66
2022-09-23T05:58:13.249Z,95013.59
2022-09-23T06:00:40.929Z,95011.78
2022-09-23T06:03:12.861Z,95025.81
2022-09-23T06:05:39.908Z,95015.47
2022-09-23T06:08:09.397Z,95018.00
2022-09-23T06:10:36.994Z,95016.75
2022-09-23T06:13:03.715Z,95014.66
2022-09-23T06:15:30.395Z,95013.09
2022-09-23T06:17:57.022Z,95025.69
2022-09-23T06:20:23.692Z,95020.03
2022-09-23T06:22:53.922Z,95017.59
2022-09-23T06:25:23.206Z,95023.44
2022-09-23T06:27:54.355Z,95013.88
2022-09-23T06:30:21.106Z,95022.78
2022-09-23T06:32:49.775Z,95015.72
2022-09-23T06:35:26.302Z,95018.13
2022-09-23T06:37:55.166Z,95013.09
2022-09-23T06:40:25.721Z,95010.25
2022-09-23T06:42:58.382Z,95019.50
2022-09-23T06:45:25.506Z,95014.31
2022-09-23T06:47:56.102Z,95012.91
2022-09-23T06:50:24.368Z,95010.69
2022-09-23T06:52:52.531Z,95009.44
2022-09-23T06:55:19.140Z,95001.91
2022-09-23T06:57:47.115Z,94999.63
2022-09-23T07:00:14.392Z,95003.63
2022-09-23T07:02:42.328Z,95006.31
2022-09-23T07:05:09.433Z,95004.25
2022-09-23T07:07:39.568Z,95008.19
2022-09-23T07:10:07.077Z,95006.41
2022-09-23T07:12:34.124Z,95003.75
2022-09-23T07:15:02.119Z,95001.88
2022-09-23T07:17:29.001Z,95002.38
2022-09-23T07:19:55.826Z,95004.72
2022-09-23T07:22:24.318Z,95000.91
2022-09-23T07:24:51.268Z,95000.28
2022-09-23T07:27:19.870Z,95008.91
2022-09-23T07:29:50.693Z,95006.44
2022-09-23T07:32:19.822Z,95010.06
2022-09-23T07:34:47.409Z,95012.53
2022-09-23T07:37:14.532Z,95006.25
2022-09-23T07:39:42.092Z,95009.75
2022-09-23T07:42:08.888Z,95013.25
2022-09-23T07:44:35.747Z,95013.56
2022-09-23T07:47:02.585Z,95010.63
2022-09-23T07:49:30.621Z,95009.28
2022-09-23T07:51:57.482Z,95008.19
2022-09-23T07:54:25.644Z,95009.47
2022-09-23T07:56:52.331Z,95012.88
2022-09-23T07:59:19.026Z,95013.09
2022-09-23T08:01:48.462Z,95010.66
2022-09-23T08:04:17.764Z,95012.69
2022-09-23T08:06:48.432Z,95016.06
2022-09-23T08:09:16.473Z,95016.31
2022-09-23T08:11:43.077Z,95011.97
2022-09-23T08:14:10.366Z,95008.13
2022-09-23T08:16:37.316Z,95010.91
2022-09-23T08:21:39.413Z,95009.69
2022-09-23T08:24:08.068Z,95014.31
2022-09-23T08:26:34.862Z,95013.03
2022-09-23T08:29:01.549Z,95015.44
2022-09-23T08:31:28.318Z,95007.16
2022-09-23T08:33:56.301Z,95011.13
2022-09-23T08:36:23.103Z,95000.47
2022-09-23T08:38:50.204Z,95000.13
2022-09-23T08:41:26.152Z,94996.72
2022-09-23T08:43:56.327Z,94997.06
2022-09-23T08:46:31.294Z,94998.41
2022-09-23T08:49:00.217Z,94994.94
2022-09-23T08:51:33.283Z,94996.75
2022-09-23T08:54:00.456Z,94999.75
2022-09-23T08:56:30.921Z,94990.28
2022-09-23T08:59:07.504Z,94994.44
2022-09-23T09:01:40.933Z,94990.97
2022-09-23T09:04:16.566Z,94993.19
2022-09-23T09:06:53.449Z,94987.41
2022-09-23T09:09:25.933Z,94987.97
2022-09-23T09:12:03.970Z,94990.97
2022-09-23T09:14:37.569Z,94984.22
2022-09-23T09:17:09.412Z,94984.16
2022-09-23T09:19:56.256Z,94983.72
2022-09-23T09:22:37.440Z,94970.53
2022-09-23T09:25:14.415Z,94972.97
2022-09-23T09:27:43.347Z,94967.84
2022-09-23T09:30:14.464Z,94967.69
2022-09-23T09:32:47.362Z,94967.56
2022-09-23T09:35:25.425Z,94964.66
2022-09-23T09:37:53.546Z,94956.94
2022-09-23T09:40:21.054Z,94950.03
2022-09-23T09:42:51.080Z,94950.38
2022-09-23T09:45:27.941Z,94958.63
2022-09-23T09:48:03.526Z,94948.34
2022-09-23T09:50:47.363Z,94949.94
2022-09-23T09:53:25.675Z,94949.31
2022-09-23T09:56:04.867Z,94943.38
2022-09-23T09:58:46.580Z,94947.31
2022-09-23T10:01:21.715Z,94936.28
2022-09-23T10:03:51.445Z,94926.97
2022-09-23T10:06:24.487Z,94920.00
2022-09-23T10:09:15.151Z,94917.16
2022-09-23T10:11:42.572Z,94921.75
2022-09-23T10:14:19.218Z,94915.38
2022-09-23T10:16:49.026Z,94915.34
2022-09-23T10:19:25.505Z,94913.88
2022-09-23T10:21:56.750Z,94918.63
2022-09-23T10:24:27.554Z,94912.81
2022-09-23T10:27:00.284Z,94909.13
2022-09-23T10:29:32.483Z,94911.47
2022-09-23T10:32:20.516Z,94911.78
2022-09-23T10:34:48.850Z,94908.44
2022-09-23T10:37:17.203Z,94904.00
2022-09-23T10:40:03.044Z,94903.88
2022-09-23T10:43:11.408Z,94897.06
2022-09-23T10:45:59.640Z,94902.13
2022-09-23T10:48:36.228Z,94904.09
2022-09-23T10:51:12.195Z,94894.75
2022-09-23T10:53:53.999Z,94889.16
2022-09-23T10:56:31.900Z,94892.78
2022-09-23T10:59:29.141Z,94886.97
2022-09-23T11:02:15.418Z,94888.59
2022-09-23T11:05:03.137Z,94884.78
2022-09-23T11:07:37.359Z,94886.88
2022-09-23T11:10:46.567Z,94881.03
2022-09-23T11:13:24.921Z,94883.06
2022-09-23T11:16:05.249Z,94879.63
2022-09-23T11:18:51.479Z,94879.72
2022-09-23T11:21:57.354Z,94879.50
2022-09-23T11:24:49.005Z,94871.31
2022-09-23T11:27:26.929Z,94868.06
2022-09-23T11:30:06.609Z,94864.84
2022-09-23T11:32:51.412Z,94863.59
2022-09-23T11:35:24.530Z,94853.16
2022-09-23T11:37:56.516Z,94853.94
2022-09-23T11:40:30.107Z,94856.91
2022-09-23T11:43:01.764Z,94856.44
2022-09-23T11:45:32.890Z,94856.34
2022-09-23T11:48:06.036Z,94849.25
2022-09-23T11:50:38.159Z,94836.78
2022-09-23T11:53:11.698Z,94843.53
2022-09-23T11:55:54.566Z,94838.56
2022-09-23T11:58:29.825Z,94836.38
2022-09-23T12:01:01.659Z,94831.03
2022-09-23T12:03:43.951Z,94833.91
2022-09-23T12:06:18.691Z,94835.22
2022-09-23T12:08:45.612Z,94827.00
2022-09-23T12:11:21.901Z,94827.81
2022-09-23T12:13:55.097Z,94817.06
2022-09-23T12:16:57.988Z,94826.50
2022-09-23T12:19:38.762Z,94820.78
2022-09-23T12:22:24.136Z,94815.28
2022-09-23T12:24:56.775Z,94810.41
2022-09-23T12:27:33.968Z,94816.09
2022-09-23T12:30:03.364Z,94814.03
2022-09-23T12:32:31.233Z,94813.66
2022-09-23T12:35:00.644Z,94808.28
2022-09-23T12:37:35.066Z,94808.56
2022-09-23T12:40:09.481Z,94807.44
2022-09-23T12:42:44.886Z,94806.19
2022-09-23T12:45:34.995Z,94800.53
2022-09-23T12:48:03.200Z,94804.84
2022-09-23T12:50:54.021Z,94797.59
2022-09-23T12:53:54.262Z,94801.06
2022-09-23T12:56:26.206Z,94794.75
2022-09-23T12:59:01.013Z,94788.59
2022-09-23T13:01:28.773Z,94790.63
2022-09-23T13:04:16.708Z,94796.53
2022-09-23T13:06:51.744Z,94791.78
2022-09-23T13:09:25.032Z,94789.91
2022-09-23T13:11:59.982Z,94787.50
2022-09-23T13:14:28.733Z,94778.53
2022-09-23T13:16:58.399Z,94786.63
2022-09-23T13:19:45.238Z,94776.66
2022-09-23T13:22:12.798Z,94768.16
2022-09-23T13:24:44.908Z,94769.84
2022-09-23T13:27:20.443Z,94763.34
2022-09-23T13:29:52.139Z,94759.56
2022-09-23T13:32:21.635Z,94765.91
2022-09-23T13:34:58.187Z,94760.41
2022-09-23T13:37:29.963Z,94765.13
2022-09-23T13:40:08.130Z,94760.72
2022-09-23T13:42:40.078Z,94748.09
2022-09-23T13:45:15.405Z,94751.94
2022-09-23T13:47:42.912Z,94749.94
2022-09-23T13:50:16.802Z,94743.44
2022-09-23T13:52:43.615Z,94747.72
2022-09-23T13:55:25.086Z,94749.00
2022-09-23T13:57:59.897Z,94745.53
2022-09-23T14:00:35.223Z,94745.88
2022-09-23T14:03:02.602Z,94746.06
2022-09-23T14:05:34.333Z,94744.00
2022-09-23T14:08:02.505Z,94735.97
2022-09-23T14:10:31.062Z,94737.66
2022-09-23T14:12:59.423Z,94731.50
2022-09-23T14:15:26.627Z,94732.94
2022-09-23T14:18:02.198Z,94734.22
2022-09-23T14:20:29.022Z,94719.88
2022-09-23T14:23:11.999Z,94717.81
2022-09-23T14:25:40.126Z,94722.88
2022-09-23T14:28:12.653Z,94714.41
2022-09-23T14:30:39.598Z,94711.25
2022-09-23T14:33:09.590Z,94709.50
2022-09-23T14:35:42.312Z,94711.06
2022-09-23T14:38:28.342Z,94706.19
2022-09-23T14:41:15.663Z,94703.50
2022-09-23T14:43:49.383Z,94700.03
2022-09-23T14:46:18.808Z,94696.41
2022-09-23T14:48:54.045Z,94700.50
2022-09-23T14:51:21.085Z,94698.78
2022-09-23T14:53:48.633Z,94693.28
2022-09-23T14:56:20.873Z,94697.03
2022-09-23T14:58:53.184Z,94692.31
2022-09-23T15:01:38.825Z,94690.91
2022-09-23T15:04:17.277Z,94690.13
2022-09-23T15:06:48.895Z,94700.19
2022-09-23T15:09:20.647Z,94693.28
2022-09-23T15:11:47.576Z,94690.25
2022-09-23T15:14:36.711Z,94687.09
2022-09-23T15:17:06.827Z,94672.75
2022-09-23T15:19:35.540Z,94686.94
2022-09-23T15:22:02.428Z,94681.59
2022-09-23T15:24:42.436Z,94677.81
2022-09-23T15:27:27.777Z,94673.69
2022-09-23T15:30:01.106Z,94672.75
2022-09-23T15:32:27.888Z,94670.09
2022-09-23T15:34:54.517Z,94673.88
2022-09-23T15:37:21.235Z,94675.31
2022-09-23T15:39:49.178Z,94674.50
2022-09-23T15:42:18.487Z,94676.41
2022-09-23T15:44:45.185Z,94682.41
2022-09-23T15:47:18.541Z,94681.44
2022-09-23T15:49:48.648Z,94681.00
2022-09-23T15:52:16.387Z,94674.69
2022-09-23T15:54:43.794Z,94680.03
2022-09-23T15:57:11.137Z,94678.47
2022-09-23T15:59:38.102Z,94681.94
2022-09-23T16:02:14.791Z,94679.59
2022-09-23T16:04:42.967Z,94680.69
2022-09-23T16:07:14.334Z,94693.13
2022-09-23T16:09:41.164Z,94681.78
2022-09-23T16:12:10.721Z,94689.66
2022-09-23T16:14:37.503Z,94693.75
2022-09-23T16:17:05.185Z,94689.34
2022-09-23T16:19:34.126Z,94687.31
2022-09-23T16:22:04.289Z,94688.56
2022-09-23T16:24:30.970Z,94693.28
2022-09-23T16:27:00.057Z,94691.84
2022-09-23T16:29:27.547Z,94685.84
2022-09-23T16:31:55.675Z,94692.47
2022-09-23T16:34:22.416Z,94688.81
2022-09-23T16:36:49.271Z,94686.91
2022-09-23T16:39:20.108Z,94690.34
2022-09-23T16:41:46.851Z,94695.69
2022-09-23T16:44:14.624Z,94696.44
2022-09-23T16:46:42.422Z,94701.44
2022-09-23T16:49:11.943Z,94692.91
2022-09-23T16:51:38.958Z,94701.03
2022-09-23T16:54:10.385Z,94701.59
2022-09-23T16:56:43.986Z,94695.25
2022-09-23T16:59:11.243Z,94697.06
2022-09-23T17:01:56.647Z,94699.38
2022-09-23T17:04:23.332Z,94693.19
2022-09-23T17:06:52.060Z,94700.84
2022-09-23T17:09:19.917Z,94709.59
2022-09-23T17:11:56.295Z,94711.59
2022-09-23T17:14:22.929Z,94703.94
2022-09-23T17:16:49.719Z,94713.25
2022-09-23T17:19:16.360Z,94710.44
2022-09-23T17:21:43.027Z,94712.63
2022-09-23T17:24:10.188Z,94720.44
2022-09-23T17:26:38.219Z,94718.88
2022-09-23T17:29:06.296Z,94722.53
2022-09-23T17:31:33.083Z,94720.13
2022-09-23T17:34:00.777Z,94724.88
2022-09-23T17:36:27.949Z,94729.00
2022-09-23T17:38:54.660Z,94720.41
2022-09-23T17:41:21.946Z,94727.25
2022-09-23T17:43:53.709Z,94728.00
2022-09-23T17:46:21.846Z,94727.47
2022-09-23T17:48:49.008Z,94730.00
2022-09-23T17:51:18.060Z,94721.56
2022-09-23T17:53:45.373Z,94728.66
2022-09-23T17:56:14.450Z,94720.56
2022-09-23T17:58:40.985Z,94730.94
2022-09-23T18:01:09.249Z,94732.44
2022-09-23T18:03:37.786Z,94721.91
2022-09-23T18:06:10.525Z,94715.63
2022-09-23T18:08:37.916Z,94722.09
2022-09-23T18:11:17.650Z,94723.44
2022-09-23T18:13:48.395Z,94731.72
2022-09-23T18:16:15.100Z,94725.66
2022-09-23T18:18:43.231Z,94731.84
2022-09-23T18:21:10.372Z,94733.78
2022-09-23T18:23:37.407Z,94733.06
2022-09-23T18:26:04.988Z,94723.63
2022-09-23T18:28:34.857Z,94724.50
2022-09-23T18:31:01.956Z,94734.19
2022-09-23T18:33:28.615Z,94728.66
2022-09-23T18:35:59.242Z,94728.41
2022-09-23T18:38:25.860Z,94732.44
2022-09-23T18:40:56.218Z,94739.41
2022-09-23T18:43:25.847Z,94745.81
2022-09-23T18:45:57.346Z,94749.06
2022-09-23T18:48:43.202Z,94754.13
2022-09-23T18:51:12.424Z,94742.19
2022-09-23T18:53:40.876Z,94743.75
2022-09-23T18:56:09.347Z,94748.03
2022-09-23T18:58:36.165Z,94750.38
2022-09-23T19:01:07.877Z,94753.03
2022-09-23T19:03:35.348Z,94748.84
2022-09-23T19:06:03.988Z,94751.84
2022-09-23T19:08:32.462Z,94752.41
2022-09-23T19:11:02.938Z,94747.13
2022-09-23T19:13:29.828Z,94743.97
2022-09-23T19:16:01.354Z,94745.84
2022-09-23T19:18:29.017Z,94743.69
2022-09-23T19:21:02.543Z,94738.63
2022-09-23T19:23:34.995Z,94733.59
2022-09-23T19:26:03.429Z,94735.22
2022-09-23T19:28:30.272Z,94734.75
2022-09-23T19:30:57.328Z,94731.03
2022-09-23T19:33:24.142Z,94732.38
2022-09-23T19:35:53.557Z,94728.44
2022-09-23T19:38:21.375Z,94730.63
2022-09-23T19:40:51.654Z,94740.47
2022-09-23T19:43:21.299Z,94734.91
2022-09-23T19:45:53.187Z,94739.72
2022-09-23T19:48:19.881Z,94736.06
2022-09-23T19:50:47.075Z,94736.63
2022-09-23T19:53:14.237Z,94730.78
2022-09-23T19:55:41.263Z,94733.72
2022-09-23T19:58:09.359Z,94737.19
2022-09-23T20:00:36.274Z,94735.06
2022-09-23T20:03:03.276Z,94728.75
2022-09-23T20:05:30.040Z,94723.97
2022-09-23T20:07:56.689Z,94722.38
2022-09-23T20:10:23.340Z,94724.78
2022-09-23T20:12:50.111Z,94728.00
2022-09-23T20:15:18.781Z,94724.81
2022-09-23T20:17:45.431Z,94721.09
2022-09-23T20:20:13.450Z,94714.78
2022-09-23T20:22:40.097Z,94721.94
2022-09-23T20:25:13.262Z,94719.56
2022-09-23T20:27:40.764Z,94715.84
2022-09-23T20:30:08.486Z,94717.72
2022-09-23T20:32:36.913Z,94711.63
2022-09-23T20:35:04.049Z,94704.22
2022-09-23T20:37:30.825Z,94702.91
2022-09-23T20:39:57.476Z,94703.97
2022-09-23T20:42:24.280Z,94697.88
2022-09-23T20:44:51.171Z,94697.06
2022-09-23T20:47:19.020Z,94692.56
2022-09-23T20:49:48.997Z,94701.03
2022-09-23T20:52:17.990Z,94697.34
2022-09-23T20:54:45.000Z,94696.03
2022-09-23T20:57:14.059Z,94694.19
2022-09-23T20:59:40.800Z,94689.66
2022-09-23T21:02:07.910Z,94696.78
2022-09-23T21:04:34.946Z,94692.56
2022-09-23T21:07:03.261Z,94692.56
2022-09-23T21:09:32.699Z,94685.94
2022-09-23T21:11:59.499Z,94692.28
2022-09-23T21:14:26.176Z,94686.75
2022-09-23T21:16:54.754Z,94692.81
2022-09-23T21:19:21.711Z,94691.50
2022-09-23T21:21:48.398Z,94693.38
2022-09-23T21:24:45.605Z,94690.72
2022-09-23T21:27:03.908Z,94690.97
2022-09-23T21:29:30.554Z,94698.69
2022-09-23T21:31:57.492Z,94692.81
2022-09-23T21:34:28.122Z,94695.47
2022-09-23T21:36:55.407Z,94694.69
2022-09-23T21:39:23.505Z,94688.03
2022-09-23T21:41:51.248Z,94679.25
2022-09-23T21:44:17.938Z,94677.13
2022-09-23T21:46:44.657Z,94671.34
2022-09-23T21:49:11.407Z,94669.25
2022-09-23T21:51:42.395Z,94672.19
2022-09-23T21:54:12.417Z,94669.00
2022-09-23T21:56:40.493Z,94661.59
2022-09-23T21:59:10.417Z,94665.03
2022-09-23T22:01:38.728Z,94666.88
2022-09-23T22:04:09.223Z,94670.31
2022-09-23T22:06:38.358Z,94666.06
2022-09-23T22:09:08.893Z,94668.97
2022-09-23T22:11:55.315Z,94673.19
2022-09-23T22:14:27.455Z,94672.38
2022-09-23T22:16:59.079Z,94667.84
2022-09-23T22:19:27.666Z,94666.81
2022-09-23T22:21:55.818Z,94668.91
2022-09-23T22:24:22.624Z,94668.91
2022-09-23T22:26:49.318Z,94673.91
2022-09-23T22:29:34.994Z,94673.66
2022-09-23T22:32:23.472Z,94669.41
2022-09-23T22:34:51.988Z,94662.78
2022-09-23T22:37:21.265Z,94646.38
2022-09-23T22:39:47.924Z,94649.06
2022-09-23T22:42:14.778Z,94651.44
2022-09-23T22:44:43.246Z,94655.38
2022-09-23T22:47:11.276Z,94655.94
2022-09-23T22:49:37.943Z,94662.56
2022-09-23T22:52:09.284Z,94651.94
2022-09-23T22:54:36.376Z,94640.00
2022-09-23T22:57:05.809Z,94646.59
2022-09-23T22:59:32.750Z,94644.16
2022-09-23T23:02:00.095Z,94639.69
2022-09-23T23:04:29.759Z,94647.34
2022-09-23T23:06:56.930Z,94644.69
2022-09-23T23:09:23.576Z,94633.03
2022-09-23T23:11:50.270Z,94636.47
2022-09-23T23:14:18.162Z,94633.28
2022-09-23T23:16:46.099Z,94631.94
2022-09-23T23:19:14.563Z,94631.13
2022-09-23T23:21:45.803Z,94636.13
2022-09-23T23:24:15.967Z,94634.56
2022-09-23T23:26:43.309Z,94638.00
2022-09-23T23:29:10.670Z,94635.56
2022-09-23T23:31:37.809Z,94640.34
2022-09-23T23:34:04.614Z,94639.28
2022-09-23T23:36:31.423Z,94632.09
2022-09-23T23:38:59.477Z,94624.69
2022-09-23T23:41:26.134Z,94630.22
2022-09-23T23:43:55.053Z,94632.34
2022-09-23T23:46:25.427Z,94632.84
2022-09-23T23:48:53.316Z,94628.06
2022-09-23T23:51:20.872Z,94630.47
2022-09-23T23:53:48.271Z,94629.91
2022-09-23T23:56:18.048Z,94638.13
2022-09-23T23:58:45.390Z,94637.34
